sensor_id;sensor_type;location;lat;lon;timestamp;P1;durP1;ratioP1;P2;durP2;ratioP2
2868;SDS011;1442;47.448;8.582;2023-02-01T00:00:14;7.28;;;4.65;;
2868;SDS011;1442;47.448;8.582;2023-02-01T00:02:41;8.10;;;4.15;;
2868;SDS011;1442;47.448;8.582;2023-02-01T00:05:09;10.90;;;4.63;;
2868;SDS011;1442;47.448;8.582;2023-02-01T00:07:36;12.73;;;4.90;;
2868;SDS011;1442;47.448;8.582;2023-02-01T00:10:06;8.43;;;5.00;;
2868;SDS011;1442;47.448;8.582;2023-02-01T00:12:33;8.85;;;4.47;;
2868;SDS011;1442;47.448;8.582;2023-02-01T00:15:00;8.85;;;5.20;;
2868;SDS011;1442;47.448;8.582;2023-02-01T00:17:28;6.25;;;4.13;;
2868;SDS011;1442;47.448;8.582;2023-02-01T00:19:55;7.55;;;4.88;;
2868;SDS011;1442;47.448;8.582;2023-02-01T00:22:22;5.57;;;4.53;;
2868;SDS011;1442;47.448;8.582;2023-02-01T00:24:49;8.52;;;4.28;;
2868;SDS011;1442;47.448;8.582;2023-02-01T00:27:17;9.82;;;4.80;;
2868;SDS011;1442;47.448;8.582;2023-02-01T00:29:46;8.77;;;4.55;;
2868;SDS011;1442;47.448;8.582;2023-02-01T00:32:13;7.45;;;4.65;;
2868;SDS011;1442;47.448;8.582;2023-02-01T00:34:40;8.05;;;4.47;;
2868;SDS011;1442;47.448;8.582;2023-02-01T00:37:07;10.32;;;5.72;;
2868;SDS011;1442;47.448;8.582;2023-02-01T00:39:34;9.70;;;5.03;;
2868;SDS011;1442;47.448;8.582;2023-02-01T00:42:02;9.35;;;4.95;;
2868;SDS011;1442;47.448;8.582;2023-02-01T00:44:30;10.63;;;5.00;;
2868;SDS011;1442;47.448;8.582;2023-02-01T00:46:59;9.13;;;4.75;;
2868;SDS011;1442;47.448;8.582;2023-02-01T00:49:27;9.02;;;4.95;;
2868;SDS011;1442;47.448;8.582;2023-02-01T00:51:54;8.55;;;5.18;;
2868;SDS011;1442;47.448;8.582;2023-02-01T00:54:21;7.47;;;4.70;;
2868;SDS011;1442;47.448;8.582;2023-02-01T00:56:48;8.45;;;4.75;;
2868;SDS011;1442;47.448;8.582;2023-02-01T00:59:16;8.98;;;4.90;;
2868;SDS011;1442;47.448;8.582;2023-02-01T01:01:44;10.00;;;5.43;;
2868;SDS011;1442;47.448;8.582;2023-02-01T01:04:11;11.10;;;5.38;;
2868;SDS011;1442;47.448;8.582;2023-02-01T01:06:38;10.25;;;4.70;;
2868;SDS011;1442;47.448;8.582;2023-02-01T01:09:06;11.18;;;5.28;;
2868;SDS011;1442;47.448;8.582;2023-02-01T01:11:34;12.98;;;5.38;;
2868;SDS011;1442;47.448;8.582;2023-02-01T01:14:02;16.95;;;5.57;;
2868;SDS011;1442;47.448;8.582;2023-02-01T01:16:30;8.15;;;5.53;;
2868;SDS011;1442;47.448;8.582;2023-02-01T01:18:59;14.90;;;5.38;;
2868;SDS011;1442;47.448;8.582;2023-02-01T01:21:27;13.02;;;5.47;;
2868;SDS011;1442;47.448;8.582;2023-02-01T01:23:54;10.50;;;6.05;;
2868;SDS011;1442;47.448;8.582;2023-02-01T01:26:22;9.27;;;5.45;;
2868;SDS011;1442;47.448;8.582;2023-02-01T01:28:50;10.05;;;5.65;;
2868;SDS011;1442;47.448;8.582;2023-02-01T01:31:18;11.88;;;5.43;;
2868;SDS011;1442;47.448;8.582;2023-02-01T01:33:47;11.40;;;5.32;;
2868;SDS011;1442;47.448;8.582;2023-02-01T01:36:15;11.75;;;6.18;;
2868;SDS011;1442;47.448;8.582;2023-02-01T01:38:43;12.15;;;5.30;;
2868;SDS011;1442;47.448;8.582;2023-02-01T01:41:12;11.63;;;5.88;;
2868;SDS011;1442;47.448;8.582;2023-02-01T01:43:47;14.35;;;5.35;;
2868;SDS011;1442;47.448;8.582;2023-02-01T01:46:15;9.13;;;5.45;;
2868;SDS011;1442;47.448;8.582;2023-02-01T01:48:42;11.95;;;5.40;;
2868;SDS011;1442;47.448;8.582;2023-02-01T01:51:10;9.13;;;4.95;;
2868;SDS011;1442;47.448;8.582;2023-02-01T01:53:42;12.27;;;5.55;;
2868;SDS011;1442;47.448;8.582;2023-02-01T01:56:10;11.63;;;5.82;;
2868;SDS011;1442;47.448;8.582;2023-02-01T01:58:38;10.40;;;5.70;;
2868;SDS011;1442;47.448;8.582;2023-02-01T02:01:05;12.75;;;5.60;;
2868;SDS011;1442;47.448;8.582;2023-02-01T02:03:33;11.25;;;5.82;;
2868;SDS011;1442;47.448;8.582;2023-02-01T02:06:02;10.27;;;5.88;;
2868;SDS011;1442;47.448;8.582;2023-02-01T02:08:30;9.23;;;5.85;;
2868;SDS011;1442;47.448;8.582;2023-02-01T02:10:59;10.52;;;5.80;;
2868;SDS011;1442;47.448;8.582;2023-02-01T02:13:26;11.70;;;6.10;;
2868;SDS011;1442;47.448;8.582;2023-02-01T02:15:58;10.50;;;5.95;;
2868;SDS011;1442;47.448;8.582;2023-02-01T02:18:29;11.55;;;5.78;;
2868;SDS011;1442;47.448;8.582;2023-02-01T02:21:11;9.40;;;5.22;;
2868;SDS011;1442;47.448;8.582;2023-02-01T02:26:29;11.43;;;6.00;;
2868;SDS011;1442;47.448;8.582;2023-02-01T02:31:58;9.18;;;5.80;;
2868;SDS011;1442;47.448;8.582;2023-02-01T02:34:32;8.43;;;5.32;;
2868;SDS011;1442;47.448;8.582;2023-02-01T02:37:03;7.95;;;5.43;;
2868;SDS011;1442;47.448;8.582;2023-02-01T02:39:36;10.97;;;5.50;;
2868;SDS011;1442;47.448;8.582;2023-02-01T02:42:07;11.20;;;5.43;;
2868;SDS011;1442;47.448;8.582;2023-02-01T02:44:57;11.60;;;5.68;;
2868;SDS011;1442;47.448;8.582;2023-02-01T02:47:44;9.75;;;5.22;;
2868;SDS011;1442;47.448;8.582;2023-02-01T02:50:19;8.80;;;5.60;;
2868;SDS011;1442;47.448;8.582;2023-02-01T02:53:15;11.82;;;6.45;;
2868;SDS011;1442;47.448;8.582;2023-02-01T02:56:00;13.35;;;6.60;;
2868;SDS011;1442;47.448;8.582;2023-02-01T02:58:46;15.65;;;7.85;;
2868;SDS011;1442;47.448;8.582;2023-02-01T03:01:32;17.98;;;7.88;;
2868;SDS011;1442;47.448;8.582;2023-02-01T03:04:17;17.48;;;7.43;;
2868;SDS011;1442;47.448;8.582;2023-02-01T03:06:47;21.70;;;7.95;;
2868;SDS011;1442;47.448;8.582;2023-02-01T03:09:16;14.50;;;7.18;;
2868;SDS011;1442;47.448;8.582;2023-02-01T03:11:45;15.18;;;6.43;;
2868;SDS011;1442;47.448;8.582;2023-02-01T03:14:32;14.65;;;6.85;;
2868;SDS011;1442;47.448;8.582;2023-02-01T03:17:01;12.90;;;6.40;;
2868;SDS011;1442;47.448;8.582;2023-02-01T03:19:31;13.55;;;6.60;;
2868;SDS011;1442;47.448;8.582;2023-02-01T03:22:02;15.50;;;6.43;;
2868;SDS011;1442;47.448;8.582;2023-02-01T03:24:31;10.02;;;5.72;;
2868;SDS011;1442;47.448;8.582;2023-02-01T03:27:01;10.35;;;5.45;;
2868;SDS011;1442;47.448;8.582;2023-02-01T03:29:29;12.13;;;6.25;;
2868;SDS011;1442;47.448;8.582;2023-02-01T03:31:57;11.55;;;6.13;;
2868;SDS011;1442;47.448;8.582;2023-02-01T03:34:25;10.88;;;5.35;;
2868;SDS011;1442;47.448;8.582;2023-02-01T03:36:54;12.25;;;6.03;;
2868;SDS011;1442;47.448;8.582;2023-02-01T03:39:27;10.07;;;6.32;;
2868;SDS011;1442;47.448;8.582;2023-02-01T03:41:56;9.57;;;5.85;;
2868;SDS011;1442;47.448;8.582;2023-02-01T03:44:26;9.52;;;5.45;;
2868;SDS011;1442;47.448;8.582;2023-02-01T03:46:55;9.35;;;5.80;;
2868;SDS011;1442;47.448;8.582;2023-02-01T03:49:24;12.98;;;6.25;;
2868;SDS011;1442;47.448;8.582;2023-02-01T03:51:53;10.82;;;5.97;;
2868;SDS011;1442;47.448;8.582;2023-02-01T03:54:20;9.82;;;5.57;;
2868;SDS011;1442;47.448;8.582;2023-02-01T03:56:49;9.52;;;6.00;;
2868;SDS011;1442;47.448;8.582;2023-02-01T03:59:17;12.02;;;6.15;;
2868;SDS011;1442;47.448;8.582;2023-02-01T04:01:45;9.98;;;5.85;;
2868;SDS011;1442;47.448;8.582;2023-02-01T04:04:12;10.60;;;6.05;;
2868;SDS011;1442;47.448;8.582;2023-02-01T04:06:45;12.43;;;5.57;;
2868;SDS011;1442;47.448;8.582;2023-02-01T04:09:12;10.93;;;7.05;;
2868;SDS011;1442;47.448;8.582;2023-02-01T04:11:39;13.57;;;6.15;;
2868;SDS011;1442;47.448;8.582;2023-02-01T04:14:07;10.95;;;5.10;;
2868;SDS011;1442;47.448;8.582;2023-02-01T04:16:35;9.48;;;5.68;;
2868;SDS011;1442;47.448;8.582;2023-02-01T04:19:02;9.10;;;5.15;;
2868;SDS011;1442;47.448;8.582;2023-02-01T04:21:29;10.60;;;5.93;;
2868;SDS011;1442;47.448;8.582;2023-02-01T04:23:56;11.82;;;5.18;;
2868;SDS011;1442;47.448;8.582;2023-02-01T04:26:23;10.00;;;5.40;;
2868;SDS011;1442;47.448;8.582;2023-02-01T04:28:50;8.68;;;5.72;;
2868;SDS011;1442;47.448;8.582;2023-02-01T04:31:19;9.43;;;5.55;;
2868;SDS011;1442;47.448;8.582;2023-02-01T04:33:50;9.45;;;5.80;;
2868;SDS011;1442;47.448;8.582;2023-02-01T04:36:18;12.77;;;6.32;;
2868;SDS011;1442;47.448;8.582;2023-02-01T04:38:46;9.63;;;5.43;;
2868;SDS011;1442;47.448;8.582;2023-02-01T04:41:14;12.90;;;5.78;;
2868;SDS011;1442;47.448;8.582;2023-02-01T04:43:43;9.00;;;5.28;;
2868;SDS011;1442;47.448;8.582;2023-02-01T04:46:10;13.10;;;5.85;;
2868;SDS011;1442;47.448;8.582;2023-02-01T04:48:39;12.57;;;5.45;;
2868;SDS011;1442;47.448;8.582;2023-02-01T04:51:06;10.60;;;5.28;;
2868;SDS011;1442;47.448;8.582;2023-02-01T04:53:34;14.88;;;6.20;;
2868;SDS011;1442;47.448;8.582;2023-02-01T04:56:01;9.32;;;6.15;;
2868;SDS011;1442;47.448;8.582;2023-02-01T04:58:28;16.75;;;6.45;;
2868;SDS011;1442;47.448;8.582;2023-02-01T05:00:55;13.30;;;6.32;;
2868;SDS011;1442;47.448;8.582;2023-02-01T05:03:22;10.07;;;5.68;;
2868;SDS011;1442;47.448;8.582;2023-02-01T05:05:51;13.18;;;6.10;;
2868;SDS011;1442;47.448;8.582;2023-02-01T05:08:18;12.93;;;6.45;;
2868;SDS011;1442;47.448;8.582;2023-02-01T05:10:47;17.92;;;7.05;;
2868;SDS011;1442;47.448;8.582;2023-02-01T05:13:14;12.07;;;6.30;;
2868;SDS011;1442;47.448;8.582;2023-02-01T05:15:59;13.85;;;6.68;;
2868;SDS011;1442;47.448;8.582;2023-02-01T05:18:26;17.63;;;7.22;;
2868;SDS011;1442;47.448;8.582;2023-02-01T05:20:55;10.35;;;5.60;;
2868;SDS011;1442;47.448;8.582;2023-02-01T05:23:22;11.52;;;5.47;;
2868;SDS011;1442;47.448;8.582;2023-02-01T05:25:49;10.57;;;5.60;;
2868;SDS011;1442;47.448;8.582;2023-02-01T05:28:16;11.23;;;5.80;;
2868;SDS011;1442;47.448;8.582;2023-02-01T05:30:44;15.80;;;6.75;;
2868;SDS011;1442;47.448;8.582;2023-02-01T05:33:11;8.30;;;5.47;;
2868;SDS011;1442;47.448;8.582;2023-02-01T05:35:38;11.32;;;5.82;;
2868;SDS011;1442;47.448;8.582;2023-02-01T05:38:06;10.93;;;5.45;;
2868;SDS011;1442;47.448;8.582;2023-02-01T05:40:33;9.07;;;6.03;;
2868;SDS011;1442;47.448;8.582;2023-02-01T05:43:00;17.67;;;5.93;;
2868;SDS011;1442;47.448;8.582;2023-02-01T05:45:28;14.95;;;5.88;;
2868;SDS011;1442;47.448;8.582;2023-02-01T05:47:55;9.68;;;5.38;;
2868;SDS011;1442;47.448;8.582;2023-02-01T05:50:22;12.00;;;5.43;;
2868;SDS011;1442;47.448;8.582;2023-02-01T05:52:49;8.90;;;5.47;;
2868;SDS011;1442;47.448;8.582;2023-02-01T05:55:18;10.02;;;5.72;;
2868;SDS011;1442;47.448;8.582;2023-02-01T05:57:45;9.48;;;5.38;;
2868;SDS011;1442;47.448;8.582;2023-02-01T06:00:12;11.80;;;5.15;;
2868;SDS011;1442;47.448;8.582;2023-02-01T06:02:40;11.07;;;6.18;;
2868;SDS011;1442;47.448;8.582;2023-02-01T06:05:07;10.57;;;5.13;;
2868;SDS011;1442;47.448;8.582;2023-02-01T06:07:34;10.27;;;5.43;;
2868;SDS011;1442;47.448;8.582;2023-02-01T06:10:02;12.65;;;6.25;;
2868;SDS011;1442;47.448;8.582;2023-02-01T06:12:31;10.30;;;5.13;;
2868;SDS011;1442;47.448;8.582;2023-02-01T06:14:58;6.40;;;4.70;;
2868;SDS011;1442;47.448;8.582;2023-02-01T06:17:25;11.27;;;5.50;;
2868;SDS011;1442;47.448;8.582;2023-02-01T06:19:52;7.88;;;4.82;;
2868;SDS011;1442;47.448;8.582;2023-02-01T06:22:19;8.23;;;5.63;;
2868;SDS011;1442;47.448;8.582;2023-02-01T06:24:47;10.48;;;5.10;;
2868;SDS011;1442;47.448;8.582;2023-02-01T06:27:14;9.93;;;5.07;;
2868;SDS011;1442;47.448;8.582;2023-02-01T06:29:43;9.25;;;4.95;;
2868;SDS011;1442;47.448;8.582;2023-02-01T06:32:10;10.43;;;5.32;;
2868;SDS011;1442;47.448;8.582;2023-02-01T06:34:37;9.27;;;5.07;;
2868;SDS011;1442;47.448;8.582;2023-02-01T06:37:05;9.50;;;5.00;;
2868;SDS011;1442;47.448;8.582;2023-02-01T06:39:32;7.68;;;5.20;;
2868;SDS011;1442;47.448;8.582;2023-02-01T06:41:59;10.55;;;5.63;;
2868;SDS011;1442;47.448;8.582;2023-02-01T06:44:26;13.27;;;6.22;;
2868;SDS011;1442;47.448;8.582;2023-02-01T06:46:54;12.05;;;5.53;;
2868;SDS011;1442;47.448;8.582;2023-02-01T06:49:22;12.75;;;5.35;;
2868;SDS011;1442;47.448;8.582;2023-02-01T06:51:49;11.18;;;5.60;;
2868;SDS011;1442;47.448;8.582;2023-02-01T06:54:16;11.73;;;6.22;;
2868;SDS011;1442;47.448;8.582;2023-02-01T06:56:43;9.52;;;5.45;;
2868;SDS011;1442;47.448;8.582;2023-02-01T06:59:10;8.98;;;5.15;;
2868;SDS011;1442;47.448;8.582;2023-02-01T07:01:38;16.13;;;5.97;;
2868;SDS011;1442;47.448;8.582;2023-02-01T07:04:06;11.15;;;5.50;;
2868;SDS011;1442;47.448;8.582;2023-02-01T07:06:33;10.55;;;5.30;;
2868;SDS011;1442;47.448;8.582;2023-02-01T07:09:00;10.27;;;6.20;;
2868;SDS011;1442;47.448;8.582;2023-02-01T07:11:28;9.65;;;5.60;;
2868;SDS011;1442;47.448;8.582;2023-02-01T07:13:55;15.35;;;6.18;;
2868;SDS011;1442;47.448;8.582;2023-02-01T07:16:22;15.05;;;6.93;;
2868;SDS011;1442;47.448;8.582;2023-02-01T07:18:50;15.65;;;7.57;;
2868;SDS011;1442;47.448;8.582;2023-02-01T07:21:19;12.85;;;6.82;;
2868;SDS011;1442;47.448;8.582;2023-02-01T07:23:46;11.75;;;6.68;;
2868;SDS011;1442;47.448;8.582;2023-02-01T07:26:13;13.82;;;7.80;;
2868;SDS011;1442;47.448;8.582;2023-02-01T07:28:41;18.63;;;9.02;;
2868;SDS011;1442;47.448;8.582;2023-02-01T07:31:09;12.90;;;7.25;;
2868;SDS011;1442;47.448;8.582;2023-02-01T07:33:36;12.82;;;6.38;;
2868;SDS011;1442;47.448;8.582;2023-02-01T07:36:04;15.18;;;7.13;;
2868;SDS011;1442;47.448;8.582;2023-02-01T07:38:33;11.88;;;6.30;;
2868;SDS011;1442;47.448;8.582;2023-02-01T07:41:02;11.77;;;6.88;;
2868;SDS011;1442;47.448;8.582;2023-02-01T07:43:30;13.18;;;7.03;;
2868;SDS011;1442;47.448;8.582;2023-02-01T07:45:58;19.85;;;8.20;;
2868;SDS011;1442;47.448;8.582;2023-02-01T07:48:25;15.13;;;8.45;;
2868;SDS011;1442;47.448;8.582;2023-02-01T07:50:56;16.35;;;7.82;;
2868;SDS011;1442;47.448;8.582;2023-02-01T07:53:24;16.30;;;8.77;;
2868;SDS011;1442;47.448;8.582;2023-02-01T07:55:53;23.58;;;8.85;;
2868;SDS011;1442;47.448;8.582;2023-02-01T07:58:21;18.60;;;9.18;;
2868;SDS011;1442;47.448;8.582;2023-02-01T08:00:48;17.63;;;8.05;;
2868;SDS011;1442;47.448;8.582;2023-02-01T08:03:33;17.33;;;8.65;;
2868;SDS011;1442;47.448;8.582;2023-02-01T08:06:00;17.00;;;9.15;;
2868;SDS011;1442;47.448;8.582;2023-02-01T08:08:27;19.67;;;9.52;;
2868;SDS011;1442;47.448;8.582;2023-02-01T08:10:58;19.17;;;9.43;;
2868;SDS011;1442;47.448;8.582;2023-02-01T08:13:25;18.33;;;9.85;;
2868;SDS011;1442;47.448;8.582;2023-02-01T08:15:52;20.98;;;9.40;;
2868;SDS011;1442;47.448;8.582;2023-02-01T08:18:19;16.70;;;9.65;;
2868;SDS011;1442;47.448;8.582;2023-02-01T08:20:46;20.15;;;10.32;;
2868;SDS011;1442;47.448;8.582;2023-02-01T08:23:13;16.23;;;8.95;;
2868;SDS011;1442;47.448;8.582;2023-02-01T08:25:41;21.00;;;10.27;;
2868;SDS011;1442;47.448;8.582;2023-02-01T08:28:10;16.98;;;10.00;;
2868;SDS011;1442;47.448;8.582;2023-02-01T08:30:37;15.40;;;8.90;;
2868;SDS011;1442;47.448;8.582;2023-02-01T08:33:04;15.02;;;8.63;;
2868;SDS011;1442;47.448;8.582;2023-02-01T08:35:32;17.95;;;8.68;;
2868;SDS011;1442;47.448;8.582;2023-02-01T08:37:59;16.08;;;8.32;;
2868;SDS011;1442;47.448;8.582;2023-02-01T08:40:26;17.67;;;9.18;;
2868;SDS011;1442;47.448;8.582;2023-02-01T08:42:54;16.63;;;8.95;;
2868;SDS011;1442;47.448;8.582;2023-02-01T08:45:24;13.05;;;8.25;;
2868;SDS011;1442;47.448;8.582;2023-02-01T08:47:51;12.55;;;7.30;;
2868;SDS011;1442;47.448;8.582;2023-02-01T08:50:19;14.73;;;8.15;;
2868;SDS011;1442;47.448;8.582;2023-02-01T08:52:46;15.68;;;8.25;;
2868;SDS011;1442;47.448;8.582;2023-02-01T08:55:13;15.25;;;8.38;;
2868;SDS011;1442;47.448;8.582;2023-02-01T08:57:41;19.05;;;7.85;;
2868;SDS011;1442;47.448;8.582;2023-02-01T09:00:09;15.23;;;8.27;;
2868;SDS011;1442;47.448;8.582;2023-02-01T09:02:38;14.40;;;8.13;;
2868;SDS011;1442;47.448;8.582;2023-02-01T09:05:06;14.85;;;8.15;;
2868;SDS011;1442;47.448;8.582;2023-02-01T09:07:33;13.35;;;7.68;;
2868;SDS011;1442;47.448;8.582;2023-02-01T09:10:01;16.05;;;8.13;;
2868;SDS011;1442;47.448;8.582;2023-02-01T09:12:28;15.10;;;8.00;;
2868;SDS011;1442;47.448;8.582;2023-02-01T09:14:55;15.40;;;8.23;;
2868;SDS011;1442;47.448;8.582;2023-02-01T09:17:24;19.23;;;8.32;;
2868;SDS011;1442;47.448;8.582;2023-02-01T09:19:53;15.40;;;8.45;;
2868;SDS011;1442;47.448;8.582;2023-02-01T09:22:20;19.65;;;7.68;;
2868;SDS011;1442;47.448;8.582;2023-02-01T09:24:47;15.88;;;7.88;;
2868;SDS011;1442;47.448;8.582;2023-02-01T09:27:14;16.17;;;8.38;;
2868;SDS011;1442;47.448;8.582;2023-02-01T09:29:41;15.52;;;8.30;;
2868;SDS011;1442;47.448;8.582;2023-02-01T09:32:09;12.50;;;7.25;;
2868;SDS011;1442;47.448;8.582;2023-02-01T09:34:36;13.20;;;7.00;;
2868;SDS011;1442;47.448;8.582;2023-02-01T09:37:05;15.52;;;7.35;;
2868;SDS011;1442;47.448;8.582;2023-02-01T09:39:32;11.20;;;6.53;;
2868;SDS011;1442;47.448;8.582;2023-02-01T09:42:02;13.02;;;6.47;;
2868;SDS011;1442;47.448;8.582;2023-02-01T09:47:15;10.50;;;6.00;;
2868;SDS011;1442;47.448;8.582;2023-02-01T09:49:45;12.20;;;6.65;;
2868;SDS011;1442;47.448;8.582;2023-02-01T09:52:19;13.57;;;6.25;;
2868;SDS011;1442;47.448;8.582;2023-02-01T09:54:49;10.37;;;6.47;;
2868;SDS011;1442;47.448;8.582;2023-02-01T09:57:23;10.65;;;5.90;;
2868;SDS011;1442;47.448;8.582;2023-02-01T09:59:52;10.80;;;5.70;;
2868;SDS011;1442;47.448;8.582;2023-02-01T10:02:22;8.85;;;4.70;;
2868;SDS011;1442;47.448;8.582;2023-02-01T10:04:50;9.57;;;5.97;;
2868;SDS011;1442;47.448;8.582;2023-02-01T10:07:21;9.73;;;5.05;;
2868;SDS011;1442;47.448;8.582;2023-02-01T10:09:57;8.45;;;4.97;;
2868;SDS011;1442;47.448;8.582;2023-02-01T10:12:31;9.55;;;5.25;;
2868;SDS011;1442;47.448;8.582;2023-02-01T10:15:02;7.47;;;4.65;;
2868;SDS011;1442;47.448;8.582;2023-02-01T10:17:38;9.77;;;4.53;;
2868;SDS011;1442;47.448;8.582;2023-02-01T10:20:13;7.05;;;3.85;;
2868;SDS011;1442;47.448;8.582;2023-02-01T10:22:45;10.23;;;4.23;;
2868;SDS011;1442;47.448;8.582;2023-02-01T10:25:14;7.07;;;4.30;;
2868;SDS011;1442;47.448;8.582;2023-02-01T10:27:43;9.82;;;4.03;;
2868;SDS011;1442;47.448;8.582;2023-02-01T10:30:16;7.47;;;4.10;;
2868;SDS011;1442;47.448;8.582;2023-02-01T10:32:44;6.85;;;4.25;;
2868;SDS011;1442;47.448;8.582;2023-02-01T10:35:13;6.63;;;3.78;;
2868;SDS011;1442;47.448;8.582;2023-02-01T10:37:42;9.68;;;4.03;;
2868;SDS011;1442;47.448;8.582;2023-02-01T10:40:15;7.38;;;4.15;;
2868;SDS011;1442;47.448;8.582;2023-02-01T10:42:43;6.15;;;3.90;;
2868;SDS011;1442;47.448;8.582;2023-02-01T10:45:12;6.35;;;3.65;;
2868;SDS011;1442;47.448;8.582;2023-02-01T10:47:40;8.90;;;3.80;;
2868;SDS011;1442;47.448;8.582;2023-02-01T10:50:12;6.60;;;3.83;;
2868;SDS011;1442;47.448;8.582;2023-02-01T10:52:43;6.13;;;3.83;;
2868;SDS011;1442;47.448;8.582;2023-02-01T10:58:15;7.25;;;3.70;;
2868;SDS011;1442;47.448;8.582;2023-02-01T11:00:44;6.97;;;3.40;;
2868;SDS011;1442;47.448;8.582;2023-02-01T11:05:57;7.13;;;3.47;;
2868;SDS011;1442;47.448;8.582;2023-02-01T11:08:24;4.75;;;3.35;;
2868;SDS011;1442;47.448;8.582;2023-02-01T11:10:56;5.93;;;3.50;;
2868;SDS011;1442;47.448;8.582;2023-02-01T11:13:28;7.35;;;3.50;;
2868;SDS011;1442;47.448;8.582;2023-02-01T11:15:57;8.40;;;3.90;;
2868;SDS011;1442;47.448;8.582;2023-02-01T11:18:25;7.70;;;3.47;;
2868;SDS011;1442;47.448;8.582;2023-02-01T11:20:53;5.63;;;3.33;;
2868;SDS011;1442;47.448;8.582;2023-02-01T11:23:21;6.03;;;3.20;;
2868;SDS011;1442;47.448;8.582;2023-02-01T11:25:50;5.03;;;2.70;;
2868;SDS011;1442;47.448;8.582;2023-02-01T11:28:17;6.32;;;3.00;;
2868;SDS011;1442;47.448;8.582;2023-02-01T11:30:46;4.15;;;2.58;;
2868;SDS011;1442;47.448;8.582;2023-02-01T11:33:15;6.10;;;3.17;;
2868;SDS011;1442;47.448;8.582;2023-02-01T11:35:43;3.75;;;2.53;;
2868;SDS011;1442;47.448;8.582;2023-02-01T11:38:12;3.95;;;2.88;;
2868;SDS011;1442;47.448;8.582;2023-02-01T11:40:41;5.07;;;2.90;;
2868;SDS011;1442;47.448;8.582;2023-02-01T11:43:11;5.65;;;2.47;;
2868;SDS011;1442;47.448;8.582;2023-02-01T11:45:40;4.13;;;2.40;;
2868;SDS011;1442;47.448;8.582;2023-02-01T11:48:09;3.50;;;2.20;;
2868;SDS011;1442;47.448;8.582;2023-02-01T11:50:38;6.18;;;2.50;;
2868;SDS011;1442;47.448;8.582;2023-02-01T11:53:17;5.38;;;2.30;;
2868;SDS011;1442;47.448;8.582;2023-02-01T11:55:50;4.55;;;2.25;;
2868;SDS011;1442;47.448;8.582;2023-02-01T12:00:54;4.78;;;2.10;;
2868;SDS011;1442;47.448;8.582;2023-02-01T12:06:14;6.10;;;2.45;;
2868;SDS011;1442;47.448;8.582;2023-02-01T12:08:49;6.45;;;2.58;;
2868;SDS011;1442;47.448;8.582;2023-02-01T12:11:28;4.50;;;2.72;;
2868;SDS011;1442;47.448;8.582;2023-02-01T12:14:01;4.40;;;2.58;;
2868;SDS011;1442;47.448;8.582;2023-02-01T12:16:32;9.43;;;2.88;;
2868;SDS011;1442;47.448;8.582;2023-02-01T12:19:13;7.35;;;2.97;;
2868;SDS011;1442;47.448;8.582;2023-02-01T12:21:48;5.22;;;2.47;;
2868;SDS011;1442;47.448;8.582;2023-02-01T12:24:22;4.60;;;2.70;;
2868;SDS011;1442;47.448;8.582;2023-02-01T12:27:02;7.25;;;2.20;;
2868;SDS011;1442;47.448;8.582;2023-02-01T12:29:34;4.03;;;1.90;;
2868;SDS011;1442;47.448;8.582;2023-02-01T12:32:05;6.50;;;2.15;;
2868;SDS011;1442;47.448;8.582;2023-02-01T12:34:41;7.17;;;2.37;;
2868;SDS011;1442;47.448;8.582;2023-02-01T12:37:15;6.35;;;1.83;;
2868;SDS011;1442;47.448;8.582;2023-02-01T12:39:47;5.90;;;2.05;;
2868;SDS011;1442;47.448;8.582;2023-02-01T12:42:16;4.35;;;2.20;;
2868;SDS011;1442;47.448;8.582;2023-02-01T12:44:47;7.30;;;2.55;;
2868;SDS011;1442;47.448;8.582;2023-02-01T12:47:18;5.90;;;2.38;;
2868;SDS011;1442;47.448;8.582;2023-02-01T12:49:48;8.27;;;2.88;;
2868;SDS011;1442;47.448;8.582;2023-02-01T12:52:19;5.43;;;2.13;;
2868;SDS011;1442;47.448;8.582;2023-02-01T12:54:49;4.38;;;2.40;;
2868;SDS011;1442;47.448;8.582;2023-02-01T12:57:19;3.30;;;1.92;;
2868;SDS011;1442;47.448;8.582;2023-02-01T12:59:49;3.95;;;2.45;;
2868;SDS011;1442;47.448;8.582;2023-02-01T13:02:19;6.15;;;2.03;;
2868;SDS011;1442;47.448;8.582;2023-02-01T13:04:52;5.40;;;2.20;;
2868;SDS011;1442;47.448;8.582;2023-02-01T13:07:25;6.90;;;2.22;;
2868;SDS011;1442;47.448;8.582;2023-02-01T13:09:55;3.42;;;2.20;;
2868;SDS011;1442;47.448;8.582;2023-02-01T13:12:25;5.20;;;2.22;;
2868;SDS011;1442;47.448;8.582;2023-02-01T13:14:53;9.98;;;2.50;;
2868;SDS011;1442;47.448;8.582;2023-02-01T13:17:23;3.50;;;2.15;;
2868;SDS011;1442;47.448;8.582;2023-02-01T13:19:51;6.38;;;1.73;;
2868;SDS011;1442;47.448;8.582;2023-02-01T13:22:21;5.00;;;1.80;;
2868;SDS011;1442;47.448;8.582;2023-02-01T13:24:52;3.38;;;1.95;;
2868;SDS011;1442;47.448;8.582;2023-02-01T13:27:21;3.80;;;1.90;;
2868;SDS011;1442;47.448;8.582;2023-02-01T13:29:51;6.05;;;1.83;;
2868;SDS011;1442;47.448;8.582;2023-02-01T13:32:28;9.82;;;2.33;;
2868;SDS011;1442;47.448;8.582;2023-02-01T13:35:12;8.43;;;1.90;;
2868;SDS011;1442;47.448;8.582;2023-02-01T13:37:51;8.88;;;2.47;;
2868;SDS011;1442;47.448;8.582;2023-02-01T13:40:33;8.18;;;2.67;;
2868;SDS011;1442;47.448;8.582;2023-02-01T13:43:05;4.07;;;1.80;;
2868;SDS011;1442;47.448;8.582;2023-02-01T13:45:35;8.43;;;2.15;;
2868;SDS011;1442;47.448;8.582;2023-02-01T13:48:03;4.00;;;1.60;;
2868;SDS011;1442;47.448;8.582;2023-02-01T13:50:32;6.22;;;1.50;;
2868;SDS011;1442;47.448;8.582;2023-02-01T13:53:03;2.80;;;1.40;;
2868;SDS011;1442;47.448;8.582;2023-02-01T13:55:33;4.32;;;1.67;;
2868;SDS011;1442;47.448;8.582;2023-02-01T13:58:03;4.75;;;1.60;;
2868;SDS011;1442;47.448;8.582;2023-02-01T14:00:31;8.93;;;1.95;;
2868;SDS011;1442;47.448;8.582;2023-02-01T14:03:09;8.48;;;2.05;;
2868;SDS011;1442;47.448;8.582;2023-02-01T14:05:57;6.80;;;1.75;;
2868;SDS011;1442;47.448;8.582;2023-02-01T14:13:51;11.45;;;2.05;;
2868;SDS011;1442;47.448;8.582;2023-02-01T14:16:18;5.63;;;1.85;;
2868;SDS011;1442;47.448;8.582;2023-02-01T14:18:49;2.72;;;1.27;;
2868;SDS011;1442;47.448;8.582;2023-02-01T14:21:25;7.68;;;1.48;;
2868;SDS011;1442;47.448;8.582;2023-02-01T14:23:57;7.13;;;1.33;;
2868;SDS011;1442;47.448;8.582;2023-02-01T14:26:25;7.97;;;1.30;;
2868;SDS011;1442;47.448;8.582;2023-02-01T14:28:55;4.78;;;1.40;;
2868;SDS011;1442;47.448;8.582;2023-02-01T14:31:34;4.00;;;1.20;;
2868;SDS011;1442;47.448;8.582;2023-02-01T14:34:02;8.63;;;1.13;;
2868;SDS011;1442;47.448;8.582;2023-02-01T14:36:45;9.27;;;1.73;;
2868;SDS011;1442;47.448;8.582;2023-02-01T14:39:27;11.95;;;1.40;;
2868;SDS011;1442;47.448;8.582;2023-02-01T14:41:56;5.20;;;1.20;;
2868;SDS011;1442;47.448;8.582;2023-02-01T14:44:26;2.90;;;1.08;;
2868;SDS011;1442;47.448;8.582;2023-02-01T14:47:10;4.93;;;1.27;;
2868;SDS011;1442;47.448;8.582;2023-02-01T14:49:54;4.43;;;1.35;;
2868;SDS011;1442;47.448;8.582;2023-02-01T14:52:22;6.80;;;1.45;;
2868;SDS011;1442;47.448;8.582;2023-02-01T14:54:52;8.30;;;1.63;;
2868;SDS011;1442;47.448;8.582;2023-02-01T14:57:20;6.88;;;1.60;;
2868;SDS011;1442;47.448;8.582;2023-02-01T14:59:52;6.65;;;1.35;;
2868;SDS011;1442;47.448;8.582;2023-02-01T15:02:23;9.63;;;1.23;;
2868;SDS011;1442;47.448;8.582;2023-02-01T15:04:53;10.32;;;1.70;;
2868;SDS011;1442;47.448;8.582;2023-02-01T15:07:21;5.38;;;1.60;;
2868;SDS011;1442;47.448;8.582;2023-02-01T15:09:49;13.15;;;2.42;;
2868;SDS011;1442;47.448;8.582;2023-02-01T15:12:17;9.65;;;1.73;;
2868;SDS011;1442;47.448;8.582;2023-02-01T15:14:48;8.57;;;2.50;;
2868;SDS011;1442;47.448;8.582;2023-02-01T15:17:31;11.75;;;1.67;;
2868;SDS011;1442;47.448;8.582;2023-02-01T15:19:59;5.75;;;1.52;;
2868;SDS011;1442;47.448;8.582;2023-02-01T15:22:27;4.72;;;1.88;;
2868;SDS011;1442;47.448;8.582;2023-02-01T15:24:55;4.95;;;1.52;;
2868;SDS011;1442;47.448;8.582;2023-02-01T15:27:23;12.50;;;1.90;;
2868;SDS011;1442;47.448;8.582;2023-02-01T15:29:50;10.02;;;1.83;;
2868;SDS011;1442;47.448;8.582;2023-02-01T15:35:05;7.57;;;1.67;;
2868;SDS011;1442;47.448;8.582;2023-02-01T15:37:32;8.68;;;1.42;;
2868;SDS011;1442;47.448;8.582;2023-02-01T15:40:03;6.45;;;2.03;;
2868;SDS011;1442;47.448;8.582;2023-02-01T15:42:32;7.65;;;1.70;;
2868;SDS011;1442;47.448;8.582;2023-02-01T15:45:00;7.22;;;1.90;;
2868;SDS011;1442;47.448;8.582;2023-02-01T15:47:27;7.57;;;1.83;;
2868;SDS011;1442;47.448;8.582;2023-02-01T15:49:56;8.75;;;2.30;;